Time;durP1;ratioP1;P1;durP2;ratioP2;P2;SDS_P1;SDS_P2;PMS_P1;PMS_P2;Temp;Humidity;BMP_temperature;BMP_pressure;BME280_temperature;BME280_humidity;BME280_pressure;Samples;Min_cycle;Max_cycle;Signal;HPM_P1;HPM_P2
2023/08/15 00:00:39;;;;;;;6.82;1.08;;;16.70;99.90;;;;;;6195594;23;20008;-71
2023/08/15 00:03:05;;;;;;;6.15;1.55;;;16.60;99.90;;;;;;6197090;23;20070;-71
2023/08/15 00:05:30;;;;;;;3.88;0.82;;;16.60;99.90;;;;;;6194664;23;20012;-71
2023/08/15 00:07:56;;;;;;;8.77;1.50;;;16.50;99.90;;;;;;6195321;23;20376;-71
2023/08/15 00:10:22;;;;;;;5.95;1.17;;;16.50;99.90;;;;;;6195959;23;20095;-71
2023/08/15 00:12:47;;;;;;;4.75;0.80;;;16.40;99.90;;;;;;6196500;23;20041;-71
2023/08/15 00:15:13;;;;;;;7.72;1.25;;;16.30;99.90;;;;;;6196566;23;20009;-71
2023/08/15 00:17:38;;;;;;;5.90;1.15;;;16.30;99.90;;;;;;6196613;23;20339;-71
2023/08/15 00:20:05;;;;;;;8.23;1.20;;;16.20;99.90;;;;;;6195495;23;20094;-72
2023/08/15 00:22:31;;;;;;;4.07;1.15;;;16.20;99.90;;;;;;6169809;23;20008;-72
2023/08/15 00:24:57;;;;;;;6.72;1.00;;;16.20;99.90;;;;;;6193130;23;20138;-72
2023/08/15 00:27:22;;;;;;;6.32;1.00;;;16.10;99.90;;;;;;6193091;23;20842;-71
2023/08/15 00:29:48;;;;;;;6.18;1.00;;;16.10;99.90;;;;;;6194205;23;20011;-72
2023/08/15 00:32:13;;;;;;;6.65;1.17;;;16.10;99.90;;;;;;6196296;23;20472;-72
2023/08/15 00:34:39;;;;;;;9.43;1.20;;;16.10;99.90;;;;;;6195531;23;20027;-72
2023/08/15 00:37:05;;;;;;;4.70;1.23;;;16.00;99.90;;;;;;6196056;23;20004;-72
2023/08/15 00:39:31;;;;;;;8.30;1.42;;;16.00;99.90;;;;;;6196095;23;20063;-71
2023/08/15 00:41:56;;;;;;;5.25;1.17;;;16.00;99.90;;;;;;6197052;23;20017;-71
2023/08/15 00:44:22;;;;;;;7.22;1.00;;;16.00;99.90;;;;;;6197341;23;20020;-72
2023/08/15 00:46:48;;;;;;;4.20;1.25;;;16.00;99.90;;;;;;6197520;23;20341;-72
2023/08/15 00:49:13;;;;;;;8.82;1.13;;;16.00;99.90;;;;;;6195863;23;20299;-71
2023/08/15 00:51:39;;;;;;;5.65;1.20;;;16.00;99.90;;;;;;6193953;23;20008;-72
2023/08/15 00:54:06;;;;;;;8.30;1.20;;;16.00;99.90;;;;;;6193230;23;20083;-71
2023/08/15 00:56:32;;;;;;;6.07;1.17;;;15.90;99.90;;;;;;6194355;23;20518;-72
2023/08/15 00:58:58;;;;;;;5.60;1.20;;;15.90;99.90;;;;;;6192729;23;20429;-72
2023/08/15 01:01:24;;;;;;;6.13;1.08;;;15.90;99.90;;;;;;6194386;23;20043;-71
2023/08/15 01:03:51;;;;;;;5.22;1.15;;;15.90;99.90;;;;;;6191785;23;20508;-72
2023/08/15 01:06:17;;;;;;;3.10;1.13;;;15.80;99.90;;;;;;6193641;23;20004;-72
2023/08/15 01:08:43;;;;;;;4.53;1.05;;;15.80;99.90;;;;;;6197534;23;20070;-71
2023/08/15 01:11:09;;;;;;;6.63;1.33;;;15.70;99.90;;;;;;6198391;23;20008;-71
2023/08/15 01:13:44;;;;;;;10.20;1.40;;;15.70;99.90;;;;;;6196493;23;20047;-72
2023/08/15 01:16:20;;;;;;;4.18;1.02;;;15.60;99.90;;;;;;6197458;23;20008;-72
2023/08/15 01:18:57;;;;;;;5.85;1.17;;;15.50;99.90;;;;;;6196998;23;20008;-71
2023/08/15 01:21:29;;;;;;;6.05;1.20;;;15.50;99.90;;;;;;6196899;23;20017;-72
2023/08/15 01:23:56;;;;;;;7.13;1.08;;;15.50;99.90;;;;;;6196388;23;20043;-72
2023/08/15 01:26:21;;;;;;;8.88;1.40;;;15.40;99.90;;;;;;6171107;23;20437;-72
2023/08/15 01:28:47;;;;;;;7.63;1.30;;;15.40;99.90;;;;;;6196896;23;20055;-72
2023/08/15 01:31:25;;;;;;;4.63;1.13;;;15.40;99.90;;;;;;6196448;23;20062;-72
2023/08/15 01:34:32;;;;;;;5.55;1.25;;;15.30;99.90;;;;;;6191776;23;20422;-72
2023/08/15 01:37:14;;;;;;;6.18;1.50;;;15.30;99.90;;;;;;6164865;23;20332;-71
2023/08/15 01:39:42;;;;;;;3.55;1.15;;;15.20;99.90;;;;;;6195769;23;20389;-72
2023/08/15 01:42:10;;;;;;;6.43;1.67;;;15.10;99.90;;;;;;6197102;23;20305;-72
2023/08/15 01:44:37;;;;;;;4.85;1.48;;;15.00;99.90;;;;;;6195102;23;20038;-72
2023/08/15 01:47:03;;;;;;;8.98;1.75;;;15.00;99.90;;;;;;6197791;23;20011;-71
2023/08/15 01:49:28;;;;;;;6.53;1.50;;;14.90;99.90;;;;;;6190619;23;20060;-71
2023/08/15 01:52:01;;;;;;;6.35;1.67;;;14.90;99.90;;;;;;5063115;28;20406;-73
2023/08/15 01:54:27;;;;;;;7.43;1.80;;;14.80;99.90;;;;;;5072183;28;20113;-73
2023/08/15 01:56:52;;;;;;;7.93;1.63;;;14.70;99.90;;;;;;5067726;28;20036;-73
2023/08/15 01:59:18;;;;;;;9.57;1.70;;;14.70;99.90;;;;;;5045143;28;20028;-72
2023/08/15 02:01:43;;;;;;;6.35;1.70;;;14.70;99.90;;;;;;5041585;28;20057;-73
2023/08/15 02:04:09;;;;;;;7.07;1.73;;;14.70;99.90;;;;;;5045328;28;20042;-72
2023/08/15 02:06:34;;;;;;;7.28;1.85;;;14.60;99.90;;;;;;5034645;28;20286;-73
2023/08/15 02:09:00;;;;;;;7.55;2.10;;;14.50;99.90;;;;;;5051597;28;20092;-71
2023/08/15 02:11:26;;;;;;;5.43;1.55;;;14.40;99.90;;;;;;5058088;28;20032;-72
2023/08/15 02:13:54;;;;;;;5.78;1.85;;;14.50;99.90;;;;;;5057388;28;20993;-72
2023/08/15 02:16:19;;;;;;;7.75;2.03;;;14.40;99.90;;;;;;5052266;28;20451;-72
2023/08/15 02:18:45;;;;;;;9.27;2.42;;;14.40;99.90;;;;;;5073914;28;20029;-72
2023/08/15 02:21:10;;;;;;;8.68;2.20;;;14.30;99.90;;;;;;5062680;28;20018;-72
2023/08/15 02:23:36;;;;;;;8.20;2.35;;;14.40;99.90;;;;;;5034247;28;20033;-72
2023/08/15 02:26:02;;;;;;;6.45;2.35;;;14.30;99.90;;;;;;5031950;28;20111;-72
2023/08/15 02:28:27;;;;;;;6.78;2.00;;;14.30;99.90;;;;;;5030848;28;20457;-72
2023/08/15 02:30:53;;;;;;;5.53;1.92;;;14.30;99.90;;;;;;5046452;28;20041;-72
2023/08/15 02:33:19;;;;;;;4.57;2.25;;;14.20;99.90;;;;;;5044570;28;20029;-72
2023/08/15 02:35:44;;;;;;;7.40;2.15;;;14.20;99.90;;;;;;5029031;28;20033;-72
2023/08/15 02:38:10;;;;;;;6.53;2.08;;;14.20;99.90;;;;;;5041807;28;20032;-72
2023/08/15 02:40:36;;;;;;;5.15;1.98;;;14.10;99.90;;;;;;5054420;28;20032;-72
2023/08/15 02:43:01;;;;;;;10.93;2.88;;;14.10;99.90;;;;;;5056442;28;20076;-72
2023/08/15 02:45:27;;;;;;;4.72;1.95;;;14.10;99.90;;;;;;5046290;28;20029;-72
2023/08/15 02:47:52;;;;;;;8.20;2.03;;;14.10;99.90;;;;;;5047161;28;20586;-72
2023/08/15 02:50:18;;;;;;;5.53;1.90;;;14.20;99.90;;;;;;5036675;28;20135;-72
2023/08/15 02:52:44;;;;;;;4.80;1.95;;;14.30;99.90;;;;;;5031189;28;20587;-72
2023/08/15 02:55:09;;;;;;;8.20;2.08;;;14.40;99.90;;;;;;5031511;28;20549;-73
2023/08/15 02:57:35;;;;;;;4.53;2.03;;;14.50;99.90;;;;;;5068581;28;20025;-72
2023/08/15 03:00:00;;;;;;;4.90;1.90;;;14.50;99.90;;;;;;5068711;28;20056;-72
2023/08/15 03:02:27;;;;;;;9.75;2.92;;;14.60;99.90;;;;;;5033795;28;20033;-72
2023/08/15 03:04:52;;;;;;;9.82;3.25;;;14.60;99.90;;;;;;5037144;28;20030;-72
2023/08/15 03:07:18;;;;;;;10.63;4.03;;;14.70;99.90;;;;;;5024291;28;20032;-72
2023/08/15 03:09:44;;;;;;;13.02;4.13;;;14.70;99.90;;;;;;5032860;28;20025;-72
2023/08/15 03:12:09;;;;;;;11.43;4.43;;;14.70;99.90;;;;;;5022083;28;20048;-72
2023/08/15 03:14:35;;;;;;;12.40;4.80;;;14.80;99.90;;;;;;5053021;28;20381;-72
2023/08/15 03:17:02;;;;;;;14.90;5.15;;;14.80;99.90;;;;;;5026533;28;20242;-72
2023/08/15 03:19:28;;;;;;;14.80;5.40;;;14.80;99.90;;;;;;5053617;28;20028;-72
2023/08/15 03:21:53;;;;;;;10.85;4.95;;;14.80;99.90;;;;;;5054355;28;20075;-72
2023/08/15 03:24:19;;;;;;;10.23;4.55;;;14.70;99.90;;;;;;5052239;28;20175;-72
2023/08/15 03:26:44;;;;;;;9.30;4.28;;;14.70;99.90;;;;;;5037883;28;20034;-72
2023/08/15 03:29:10;;;;;;;7.82;4.05;;;14.50;99.90;;;;;;5015598;28;20029;-72
2023/08/15 03:31:36;;;;;;;9.35;3.97;;;14.40;99.90;;;;;;5032506;28;20408;-72
2023/08/15 03:34:02;;;;;;;6.43;3.90;;;14.40;99.90;;;;;;5021362;28;20835;-72
2023/08/15 03:36:27;;;;;;;8.27;4.03;;;14.30;99.90;;;;;;5021021;28;20087;-72
2023/08/15 03:38:53;;;;;;;9.32;4.72;;;14.20;99.90;;;;;;5016724;28;20029;-70
2023/08/15 03:41:18;;;;;;;9.05;3.95;;;14.10;99.90;;;;;;5017304;28;20492;-71
2023/08/15 03:43:44;;;;;;;7.47;3.92;;;14.00;99.90;;;;;;5044136;28;20119;-71
2023/08/15 03:46:10;;;;;;;9.65;4.05;;;14.00;99.90;;;;;;5058205;28;20033;-71
2023/08/15 03:48:36;;;;;;;10.73;4.60;;;14.00;99.90;;;;;;5050497;28;20070;-70
2023/08/15 03:51:02;;;;;;;10.57;4.40;;;14.10;99.90;;;;;;5048092;28;20099;-71
2023/08/15 03:53:28;;;;;;;11.15;4.57;;;14.10;99.90;;;;;;5040592;28;20381;-70
2023/08/15 03:55:54;;;;;;;12.20;4.60;;;14.20;99.90;;;;;;5039022;28;20033;-70
2023/08/15 03:58:21;;;;;;;8.65;4.22;;;14.20;99.90;;;;;;5023901;28;20029;-70
2023/08/15 04:00:48;;;;;;;9.00;4.50;;;14.20;99.90;;;;;;5071138;28;20431;-70
2023/08/15 04:03:14;;;;;;;9.85;4.28;;;14.20;99.90;;;;;;5027016;28;20142;-70
2023/08/15 04:05:42;;;;;;;6.95;3.78;;;14.20;99.90;;;;;;5055872;28;20769;-71
2023/08/15 04:08:08;;;;;;;8.20;4.70;;;14.20;99.90;;;;;;5059689;28;20032;-71
2023/08/15 04:10:39;;;;;;;8.32;3.97;;;14.10;99.90;;;;;;5043980;28;20038;-71
2023/08/15 04:13:14;;;;;;;7.78;4.40;;;14.00;99.90;;;;;;5019730;28;20025;-70
2023/08/15 04:15:40;;;;;;;5.93;4.15;;;13.90;99.90;;;;;;5021129;28;20061;-71
2023/08/15 04:18:09;;;;;;;10.38;4.07;;;13.80;99.90;;;;;;5031617;28;20407;-71
2023/08/15 04:20:39;;;;;;;6.75;4.13;;;13.70;99.90;;;;;;5030381;28;20556;-71
2023/08/15 04:23:05;;;;;;;8.77;4.00;;;13.70;99.90;;;;;;5025529;28;20100;-70
2023/08/15 04:25:33;;;;;;;10.25;3.95;;;13.60;99.90;;;;;;5038110;28;20029;-71
2023/08/15 04:27:59;;;;;;;7.70;3.90;;;13.70;99.90;;;;;;5022502;28;20026;-71
2023/08/15 04:30:24;;;;;;;7.32;4.30;;;13.70;99.90;;;;;;5048335;28;20033;-71
2023/08/15 04:32:50;;;;;;;8.43;3.97;;;13.70;99.90;;;;;;5028728;28;20033;-71
2023/08/15 04:35:16;;;;;;;6.50;3.75;;;13.70;99.90;;;;;;5015767;28;20096;-72
2023/08/15 04:37:42;;;;;;;7.80;3.50;;;13.60;99.90;;;;;;5017848;28;20504;-71
2023/08/15 04:40:12;;;;;;;5.45;3.78;;;13.60;99.90;;;;;;5052080;28;20452;-71
2023/08/15 04:42:38;;;;;;;4.85;3.35;;;13.60;99.90;;;;;;5059309;28;20031;-71
2023/08/15 04:45:05;;;;;;;3.85;2.78;;;13.60;99.90;;;;;;5056596;28;20420;-71
2023/08/15 04:47:31;;;;;;;4.60;2.90;;;13.50;99.90;;;;;;5052136;28;20053;-72
2023/08/15 04:49:57;;;;;;;8.48;3.33;;;13.40;99.90;;;;;;5051865;28;20079;-71
2023/08/15 04:52:22;;;;;;;6.22;3.00;;;13.40;99.90;;;;;;5019050;28;20556;-71
2023/08/15 04:54:48;;;;;;;8.90;2.90;;;13.40;99.90;;;;;;5045817;28;20151;-71
2023/08/15 04:57:14;;;;;;;5.20;2.30;;;13.30;99.90;;;;;;5042771;28;20492;-71
2023/08/15 04:59:41;;;;;;;8.23;3.15;;;13.30;99.90;;;;;;5043681;28;20393;-71
2023/08/15 05:02:07;;;;;;;6.07;2.67;;;13.30;99.90;;;;;;5041126;28;20036;-71
2023/08/15 05:04:32;;;;;;;3.28;2.30;;;13.20;99.90;;;;;;5044808;28;20039;-71
2023/08/15 05:07:00;;;;;;;3.50;2.33;;;13.30;99.90;;;;;;5035567;28;20176;-71
2023/08/15 05:09:29;;;;;;;3.35;2.10;;;13.20;99.90;;;;;;5051491;28;20082;-71
2023/08/15 05:11:55;;;;;;;7.90;2.40;;;13.20;99.90;;;;;;5048436;28;20048;-71
2023/08/15 05:14:21;;;;;;;5.78;2.65;;;13.20;99.90;;;;;;5043005;28;20108;-71
2023/08/15 05:16:47;;;;;;;3.92;2.08;;;13.20;99.90;;;;;;5016676;28;20397;-71
2023/08/15 05:19:13;;;;;;;5.57;2.20;;;13.20;99.90;;;;;;5015320;28;20033;-71
2023/08/15 05:21:40;;;;;;;5.75;2.17;;;13.20;99.90;;;;;;5043450;28;20028;-71
2023/08/15 05:24:06;;;;;;;8.45;2.08;;;13.20;99.90;;;;;;5044243;28;20283;-71
2023/08/15 05:26:32;;;;;;;3.90;1.75;;;13.20;99.90;;;;;;5040143;28;20468;-71
2023/08/15 05:28:58;;;;;;;4.50;2.53;;;13.20;99.90;;;;;;5017823;28;20044;-71
2023/08/15 05:31:23;;;;;;;4.60;1.90;;;13.20;99.90;;;;;;5030081;28;20052;-71
2023/08/15 05:33:49;;;;;;;6.55;1.95;;;13.20;99.90;;;;;;5055466;28;20029;-71
2023/08/15 05:36:14;;;;;;;3.97;2.00;;;13.30;99.90;;;;;;5048892;28;20028;-70
2023/08/15 05:38:40;;;;;;;6.38;2.10;;;13.30;99.90;;;;;;5050630;28;20121;-71
2023/08/15 05:41:06;;;;;;;7.55;1.90;;;13.30;99.90;;;;;;5030288;28;20060;-71
2023/08/15 05:43:31;;;;;;;4.57;1.95;;;13.40;99.90;;;;;;5039397;28;20475;-71
2023/08/15 05:45:57;;;;;;;3.65;1.60;;;13.40;99.90;;;;;;5057248;28;20385;-72
2023/08/15 05:48:22;;;;;;;4.68;1.75;;;13.50;99.90;;;;;;5035739;28;20024;-71
2023/08/15 05:50:48;;;;;;;3.45;1.85;;;13.50;99.90;;;;;;5049853;28;20044;-71
2023/08/15 05:53:14;;;;;;;6.00;1.80;;;13.60;99.90;;;;;;5050419;28;20039;-71
2023/08/15 05:55:42;;;;;;;2.85;1.90;;;13.60;99.90;;;;;;5051083;28;20026;-71
2023/08/15 05:58:08;;;;;;;6.78;2.40;;;13.70;99.90;;;;;;5018420;28;20026;-71
2023/08/15 06:00:34;;;;;;;5.28;1.98;;;13.70;99.90;;;;;;5021004;28;20099;-71
2023/08/15 06:03:00;;;;;;;3.67;1.80;;;13.70;99.90;;;;;;5026347;28;20424;-70
2023/08/15 06:05:29;;;;;;;2.85;1.75;;;13.80;99.90;;;;;;5014605;28;20111;-71
2023/08/15 06:07:55;;;;;;;4.80;1.80;;;13.90;99.90;;;;;;5025194;28;20522;-71
2023/08/15 06:10:20;;;;;;;3.83;1.88;;;13.90;99.90;;;;;;5041489;28;20582;-71
2023/08/15 06:12:46;;;;;;;4.57;2.03;;;13.90;99.90;;;;;;5034098;28;20134;-71
2023/08/15 06:15:12;;;;;;;5.57;2.25;;;14.00;99.90;;;;;;5018549;28;20114;-71
2023/08/15 06:17:38;;;;;;;6.28;2.45;;;14.00;99.90;;;;;;5053628;28;20438;-71
2023/08/15 06:20:05;;;;;;;4.97;2.10;;;14.00;99.90;;;;;;5046500;28;20106;-71
2023/08/15 06:22:31;;;;;;;6.00;2.28;;;14.10;99.90;;;;;;5026663;28;20052;-71
2023/08/15 06:24:56;;;;;;;9.45;2.42;;;14.10;99.90;;;;;;5024797;28;20548;-71
2023/08/15 06:27:22;;;;;;;5.53;2.08;;;14.20;99.90;;;;;;5020492;28;20064;-71
2023/08/15 06:29:48;;;;;;;5.03;2.30;;;14.40;99.90;;;;;;5024076;28;20547;-72
2023/08/15 06:32:27;;;;;;;4.63;2.17;;;14.40;99.90;;;;;;5025368;28;20055;-71
2023/08/15 06:34:52;;;;;;;4.05;1.90;;;14.50;99.90;;;;;;5026067;28;20306;-71
2023/08/15 06:37:18;;;;;;;6.07;2.80;;;14.50;99.90;;;;;;5026886;28;20035;-71
2023/08/15 06:39:44;;;;;;;8.13;3.30;;;14.60;99.90;;;;;;5034297;28;20036;-71
2023/08/15 06:42:10;;;;;;;4.03;1.98;;;14.70;99.90;;;;;;5033929;28;20028;-71
2023/08/15 06:44:36;;;;;;;12.27;8.05;;;14.80;99.90;;;;;;5039596;28;20036;-71
2023/08/15 06:47:02;;;;;;;10.30;5.38;;;14.90;99.90;;;;;;5026382;28;20037;-71
2023/08/15 06:49:28;;;;;;;7.60;3.35;;;15.00;99.90;;;;;;5040777;28;20329;-71
2023/08/15 06:51:53;;;;;;;8.55;4.35;;;15.10;99.90;;;;;;5056962;28;20537;-71
2023/08/15 06:54:19;;;;;;;4.47;2.92;;;15.10;99.90;;;;;;5056802;28;20033;-71
2023/08/15 06:56:44;;;;;;;8.60;2.72;;;15.20;99.90;;;;;;5059587;28;20120;-71
2023/08/15 06:59:10;;;;;;;8.85;4.72;;;15.20;99.90;;;;;;5051393;28;20021;-71
2023/08/15 07:01:35;;;;;;;19.80;10.73;;;15.30;99.90;;;;;;5031546;28;20650;-71
2023/08/15 07:04:01;;;;;;;3.00;2.05;;;15.40;99.90;;;;;;5018880;28;20052;-71
2023/08/15 07:06:27;;;;;;;6.28;2.00;;;15.40;99.90;;;;;;5016218;28;20025;-71
2023/08/15 07:08:52;;;;;;;5.20;1.90;;;15.40;99.90;;;;;;5052805;28;20882;-71
2023/08/15 07:11:18;;;;;;;3.47;1.88;;;15.50;99.90;;;;;;5041819;28;20095;-71
2023/08/15 07:13:43;;;;;;;6.88;1.58;;;15.60;99.90;;;;;;5040660;28;20025;-71
2023/08/15 07:16:09;;;;;;;4.22;1.70;;;15.70;99.90;;;;;;5033316;28;20049;-71
2023/08/15 07:18:35;;;;;;;4.85;1.52;;;15.80;99.90;;;;;;5021208;28;20098;-71
2023/08/15 07:21:02;;;;;;;3.75;1.55;;;15.80;99.90;;;;;;5019304;28;20119;-71
2023/08/15 07:23:28;;;;;;;3.08;1.55;;;16.00;99.90;;;;;;5048709;28;20081;-71
2023/08/15 07:25:53;;;;;;;7.28;1.60;;;16.10;99.90;;;;;;5056375;28;20028;-71
2023/08/15 07:28:19;;;;;;;5.88;1.75;;;16.20;99.90;;;;;;5054700;28;20030;-71
2023/08/15 07:30:45;;;;;;;3.88;1.75;;;16.30;99.90;;;;;;5048561;28;20202;-71
2023/08/15 07:33:12;;;;;;;2.58;1.30;;;16.40;99.90;;;;;;5033324;28;20025;-71
2023/08/15 07:35:38;;;;;;;2.22;1.33;;;16.50;99.90;;;;;;5031262;28;20025;-70
2023/08/15 07:38:03;;;;;;;8.13;1.67;;;16.60;99.90;;;;;;5031892;28;20481;-71
2023/08/15 07:40:29;;;;;;;5.97;1.60;;;16.70;99.90;;;;;;5025477;28;20108;-71
2023/08/15 07:42:55;;;;;;;4.93;1.50;;;16.80;99.90;;;;;;4999451;28;20029;-71
2023/08/15 07:45:21;;;;;;;4.82;1.42;;;17.00;99.90;;;;;;4997803;28;20025;-71
2023/08/15 07:47:56;;;;;;;3.63;1.60;;;17.20;99.90;;;;;;4999139;28;20270;-71
2023/08/15 07:50:23;;;;;;;5.95;1.75;;;17.40;99.90;;;;;;5003750;28;20037;-78
2023/08/15 07:52:49;;;;;;;3.97;1.35;;;18.00;99.90;;;;;;5010504;28;20043;-71
2023/08/15 07:55:16;;;;;;;4.95;1.20;;;19.40;99.90;;;;;;5019512;28;20052;-70
2023/08/15 07:57:43;;;;;;;2.47;0.80;;;22.70;99.90;;;;;;5016783;28;20029;-71
2023/08/15 08:00:10;;;;;;;4.18;0.82;;;25.90;99.90;;;;;;5019111;28;20032;-71
2023/08/15 08:02:36;;;;;;;2.83;0.80;;;28.90;93.50;;;;;;5016075;28;20037;-70
2023/08/15 08:05:07;;;;;;;1.60;0.70;;;31.50;80.90;;;;;;5018255;28;20064;-76
2023/08/15 08:07:34;;;;;;;4.18;0.80;;;33.80;65.80;;;;;;5025736;28;20053;-70
2023/08/15 08:10:00;;;;;;;5.45;0.70;;;35.40;58.60;;;;;;5022592;28;20025;-70
2023/08/15 08:12:29;;;;;;;1.95;0.60;;;37.00;54.20;;;;;;5021255;28;20048;-71
2023/08/15 08:14:54;;;;;;;2.08;0.70;;;35.60;50.80;;;;;;5034114;28;20147;-70
2023/08/15 08:17:21;;;;;;;3.63;0.60;;;35.60;53.50;;;;;;5036654;28;20016;-71
2023/08/15 08:19:46;;;;;;;2.60;0.70;;;35.60;50.80;;;;;;5017930;28;20030;-71
2023/08/15 08:22:12;;;;;;;2.20;0.57;;;36.10;49.10;;;;;;5034189;28;20029;-70
2023/08/15 08:24:38;;;;;;;4.85;1.00;;;36.70;47.90;;;;;;5025935;28;20405;-70
2023/08/15 08:27:04;;;;;;;2.25;0.50;;;36.90;48.30;;;;;;5027946;28;20033;-70
2023/08/15 08:29:30;;;;;;;2.58;0.60;;;37.70;48.40;;;;;;5021708;28;20025;-71
2023/08/15 08:31:56;;;;;;;1.83;0.50;;;38.60;45.30;;;;;;5040225;28;20051;-70
2023/08/15 08:34:21;;;;;;;2.13;0.65;;;39.40;44.50;;;;;;5021251;28;20113;-70
2023/08/15 08:36:47;;;;;;;2.13;0.50;;;39.70;44.60;;;;;;5033846;28;20100;-70
2023/08/15 08:39:12;;;;;;;1.52;0.50;;;39.50;41.40;;;;;;5040113;28;20384;-70
2023/08/15 08:41:39;;;;;;;2.50;0.57;;;39.30;41.10;;;;;;5047766;28;20039;-71
2023/08/15 08:44:05;;;;;;;1.35;0.35;;;40.10;43.20;;;;;;5031079;28;20552;-71
2023/08/15 08:46:31;;;;;;;1.15;0.30;;;40.80;41.50;;;;;;5024878;28;20057;-71
2023/08/15 08:48:58;;;;;;;2.75;0.57;;;42.00;39.90;;;;;;5022755;28;20384;-70
2023/08/15 08:51:27;;;;;;;2.60;0.63;;;43.00;38.90;;;;;;5022604;28;20509;-70
2023/08/15 08:53:54;;;;;;;1.92;0.38;;;43.50;36.80;;;;;;5038336;28;20108;-71
2023/08/15 08:56:22;;;;;;;2.47;0.55;;;44.20;36.40;;;;;;5027869;28;20445;-71
2023/08/15 08:59:10;;;;;;;1.50;0.43;;;44.40;34.70;;;;;;5033303;28;20029;-71
2023/08/15 09:01:37;;;;;;;1.60;0.35;;;43.10;35.00;;;;;;5038417;28;20040;-71
2023/08/15 09:04:03;;;;;;;3.15;0.55;;;40.60;37.30;;;;;;5019289;28;20808;-71
2023/08/15 09:06:29;;;;;;;2.45;0.50;;;39.50;38.70;;;;;;5015299;28;20041;-71
2023/08/15 09:08:58;;;;;;;2.70;0.60;;;39.10;38.80;;;;;;5016848;28;20218;-71
2023/08/15 09:11:31;;;;;;;2.08;0.50;;;39.70;36.70;;;;;;5017897;28;20429;-70
2023/08/15 09:13:57;;;;;;;2.83;0.57;;;40.60;39.10;;;;;;5017821;28;20021;-71
2023/08/15 09:16:22;;;;;;;3.03;0.70;;;40.20;37.60;;;;;;5030670;28;20110;-71
2023/08/15 09:18:48;;;;;;;2.50;0.50;;;38.30;40.10;;;;;;5052602;28;20509;-71
2023/08/15 09:21:14;;;;;;;1.75;0.63;;;37.40;42.10;;;;;;5033947;28;20607;-71
2023/08/15 09:23:44;;;;;;;1.90;0.60;;;37.80;40.90;;;;;;5034263;28;20078;-71
2023/08/15 09:26:13;;;;;;;;;;;39.40;40.90;;;;;;5036522;28;20480;-71
2023/08/15 09:28:42;;;;;;;3.17;0.57;;;41.50;39.40;;;;;;5022653;28;19912;-71
2023/08/15 09:31:10;;;;;;;2.80;0.87;;;41.50;37.30;;;;;;5028543;28;20481;-71
2023/08/15 09:33:39;;;;;;;7.30;0.90;;;39.60;37.10;;;;;;5032719;28;20404;-71
2023/08/15 09:36:07;;;;;;;3.17;0.73;;;36.80;41.50;;;;;;5020199;28;20033;-71
2023/08/15 09:38:35;;;;;;;2.13;0.63;;;34.20;43.10;;;;;;5020018;28;20535;-70
2023/08/15 09:41:01;;;;;;;1.45;0.40;;;32.10;46.40;;;;;;5028088;28;20499;-71
2023/08/15 09:43:27;;;;;;;1.90;0.65;;;32.60;48.90;;;;;;5019592;28;20032;-71
2023/08/15 09:45:53;;;;;;;2.78;0.70;;;35.30;43.20;;;;;;5020824;28;20098;-71
2023/08/15 09:48:19;;;;;;;2.08;0.47;;;38.20;40.40;;;;;;5025593;28;20381;-71
2023/08/15 09:50:47;;;;;;;2.75;0.40;;;39.00;38.80;;;;;;5020863;28;20172;-71
2023/08/15 09:53:14;;;;;;;3.60;0.50;;;38.20;39.70;;;;;;5017344;28;20180;-71
2023/08/15 09:55:40;;;;;;;2.15;0.50;;;37.70;41.60;;;;;;5024536;28;20025;-71
2023/08/15 09:58:06;;;;;;;2.88;0.50;;;38.60;39.70;;;;;;5032435;28;20035;-71
2023/08/15 10:00:32;;;;;;;2.65;0.50;;;39.30;39.90;;;;;;5032219;28;20029;-71
2023/08/15 10:03:03;;;;;;;1.17;0.47;;;39.60;37.30;;;;;;5030924;28;20033;-72
2023/08/15 10:05:33;;;;;;;2.17;0.70;;;39.80;39.60;;;;;;5021349;28;20068;-72
2023/08/15 10:07:59;;;;;;;5.38;0.57;;;40.00;37.00;;;;;;4688041;28;10000556;-71
2023/08/15 10:10:28;;;;;;;1.98;0.43;;;40.50;40.10;;;;;;5028686;28;20037;-71
2023/08/15 10:12:54;;;;;;;2.33;0.50;;;42.10;35.30;;;;;;5017933;28;20590;-70
2023/08/15 10:15:21;;;;;;;2.28;0.50;;;43.80;33.50;;;;;;5023061;28;20033;-77
2023/08/15 10:17:48;;;;;;;3.45;0.80;;;43.90;33.90;;;;;;5044698;28;20032;-71
2023/08/15 10:20:19;;;;;;;1.88;0.43;;;42.80;35.80;;;;;;5023036;28;20419;-76
2023/08/15 10:22:44;;;;;;;2.30;0.70;;;42.90;34.20;;;;;;5024137;28;20025;-71
2023/08/15 10:25:22;;;;;;;3.45;0.50;;;43.60;34.30;;;;;;5033457;28;20797;-71
2023/08/15 10:27:49;;;;;;;2.20;0.45;;;44.20;33.00;;;;;;5034829;28;20604;-71
2023/08/15 10:30:33;;;;;;;1.20;0.43;;;45.00;32.10;;;;;;5022285;28;20499;-70
2023/08/15 10:33:21;;;;;;;0.82;0.30;;;45.60;32.00;;;;;;5043731;28;20115;-71
2023/08/15 10:35:55;;;;;;;1.75;0.40;;;44.10;31.90;;;;;;5051044;28;20029;-71
2023/08/15 10:38:32;;;;;;;0.98;0.40;;;41.10;33.10;;;;;;5029348;28;20517;-70
2023/08/15 10:41:06;;;;;;;1.05;0.40;;;37.80;35.70;;;;;;5025345;28;20354;-71
2023/08/15 10:43:33;;;;;;;1.67;0.50;;;37.50;39.20;;;;;;5033546;28;20389;-71
2023/08/15 10:46:04;;;;;;;2.20;0.80;;;39.00;36.90;;;;;;5029050;28;20045;-71
2023/08/15 10:48:50;;;;;;;2.25;0.80;;;39.50;36.20;;;;;;5037546;28;20492;-70
2023/08/15 10:51:36;;;;;;;1.77;0.52;;;37.50;36.40;;;;;;5039783;28;20040;-70
2023/08/15 10:54:08;;;;;;;2.40;0.52;;;36.30;42.40;;;;;;4688918;28;10000487;-70
2023/08/15 10:56:36;;;;;;;2.03;0.60;;;35.90;39.00;;;;;;5019943;28;20483;-70
2023/08/15 10:59:07;;;;;;;2.85;0.50;;;36.60;41.80;;;;;;5039849;28;20557;-71
2023/08/15 11:01:34;;;;;;;3.08;0.50;;;38.70;37.80;;;;;;5026833;28;20037;-70
2023/08/15 11:04:01;;;;;;;2.75;0.50;;;40.30;36.90;;;;;;5032915;28;20095;-71
2023/08/15 11:06:29;;;;;;;3.00;0.60;;;41.50;36.00;;;;;;5034453;28;20945;-70
2023/08/15 11:08:56;;;;;;;2.25;0.55;;;42.20;36.20;;;;;;5023077;28;20402;-71
2023/08/15 11:11:22;;;;;;;1.40;0.40;;;42.70;35.50;;;;;;5038170;28;20097;-71
2023/08/15 11:13:50;;;;;;;1.70;0.45;;;43.80;33.30;;;;;;5031927;28;20116;-70
2023/08/15 11:16:20;;;;;;;2.33;0.70;;;44.30;33.70;;;;;;5032211;28;20029;-71
2023/08/15 11:18:47;;;;;;;2.95;0.80;;;44.40;35.30;;;;;;5040975;28;20167;-71
2023/08/15 11:21:14;;;;;;;3.00;0.73;;;45.00;34.60;;;;;;5048917;28;20154;-71
2023/08/15 11:23:40;;;;;;;2.08;0.70;;;45.80;35.30;;;;;;5028210;28;20114;-71
2023/08/15 11:26:08;;;;;;;1.75;0.50;;;46.30;32.50;;;;;;5029354;28;20033;-71
2023/08/15 11:28:35;;;;;;;3.00;0.70;;;46.30;33.00;;;;;;5026896;28;20032;-70
2023/08/15 11:31:08;;;;;;;4.13;0.82;;;44.50;31.30;;;;;;5029128;28;20420;-70
2023/08/15 11:33:34;;;;;;;1.98;0.65;;;41.80;35.20;;;;;;5045985;28;20058;-71
2023/08/15 11:36:05;;;;;;;2.08;0.70;;;39.30;40.70;;;;;;5041585;28;20033;-70
2023/08/15 11:38:32;;;;;;;2.58;0.88;;;37.50;42.70;;;;;;5016804;28;20147;-70
2023/08/15 11:40:59;;;;;;;2.20;0.70;;;36.10;44.30;;;;;;5016171;28;20121;-71
2023/08/15 11:43:32;;;;;;;2.72;0.70;;;33.60;44.40;;;;;;5036956;28;20067;-70
2023/08/15 11:46:01;;;;;;;2.45;0.90;;;32.30;47.40;;;;;;5027477;28;20564;-70
2023/08/15 11:48:28;;;;;;;2.85;0.90;;;31.00;46.80;;;;;;5030267;28;20020;-70
2023/08/15 11:50:54;;;;;;;3.58;0.90;;;30.70;52.40;;;;;;5055096;28;20285;-70
2023/08/15 11:53:19;;;;;;;4.28;0.80;;;30.00;51.10;;;;;;5041302;28;20025;-70
2023/08/15 11:55:46;;;;;;;3.75;0.98;;;30.00;52.40;;;;;;5024788;28;20044;-70
2023/08/15 11:58:32;;;;;;;2.88;0.95;;;30.40;52.60;;;;;;5040124;28;20047;-70
2023/08/15 12:01:08;;;;;;;3.40;0.93;;;29.80;52.40;;;;;;5031394;28;20032;-70
2023/08/15 12:03:35;;;;;;;3.58;1.00;;;28.60;54.70;;;;;;5032575;28;20413;-69
2023/08/15 12:06:05;;;;;;;3.47;0.75;;;27.80;61.20;;;;;;5036290;28;20041;-69
2023/08/15 12:08:31;;;;;;;1.13;0.57;;;27.80;75.60;;;;;;4682153;28;10000253;-70
2023/08/15 12:10:58;;;;;;;2.95;0.90;;;28.50;73.80;;;;;;5030036;28;20045;-69
2023/08/15 12:13:30;;;;;;;2.42;0.80;;;29.40;73.60;;;;;;5022608;28;20052;-70
2023/08/15 12:15:55;;;;;;;5.78;0.90;;;29.90;70.80;;;;;;5031549;28;20558;-70
2023/08/15 12:18:21;;;;;;;3.88;0.90;;;30.40;73.80;;;;;;5029737;28;20028;-69
2023/08/15 12:20:47;;;;;;;2.53;0.77;;;30.90;60.40;;;;;;5029932;28;20476;-70
2023/08/15 12:23:12;;;;;;;2.25;0.80;;;30.70;65.40;;;;;;5027054;28;20032;-69
2023/08/15 12:25:38;;;;;;;2.30;0.80;;;30.50;62.70;;;;;;5033156;28;20029;-69
2023/08/15 12:28:04;;;;;;;3.42;0.85;;;30.70;58.50;;;;;;5024105;28;20112;-69
2023/08/15 12:30:30;;;;;;;2.50;0.90;;;30.90;63.90;;;;;;5022846;28;20067;-70
2023/08/15 12:32:56;;;;;;;3.50;1.00;;;31.10;67.50;;;;;;5018812;28;20034;-70
2023/08/15 12:35:21;;;;;;;4.60;0.95;;;30.90;59.40;;;;;;5034384;28;20116;-69
2023/08/15 12:37:47;;;;;;;4.97;1.00;;;30.30;64.90;;;;;;5036986;28;20021;-70
2023/08/15 12:40:13;;;;;;;3.30;0.90;;;29.50;62.20;;;;;;5024286;28;20040;-69
2023/08/15 12:42:38;;;;;;;5.00;0.90;;;29.70;69.10;;;;;;5016699;28;20602;-70
2023/08/15 12:45:04;;;;;;;1.30;0.57;;;30.20;67.80;;;;;;5025332;28;20661;-70